Portada
METAR-TAF:

METAR-TAF

Aeroports :

Erevan, Armènia

latitud: 40-08-50N, longitud: 044-23-45E, altitud: 865 m

Observació

L'informe es va fer fa 19 minuts, a les 05:00 UTC
Vent 4 kt del Sud-Oest, variant entre Sud i Oest/Sud-Oest
Temperatura 26°C
Humitat 26%
Pressió 1012 hPa
Visibilitat 10 km o més

METAR: UDYZ 220500Z 23004KT 170V240 9999 NSC 26/05 Q1012 R09/010070 NOSIG

Hora: 09:19 (05:19 UTC)

Pronòstic

L'informe es va fer fa 6 hores i 5 minuts, a les 23:14 UTC
Pronòstic vàlid del 22 a les 00 UTC al 22 a les 24 UTC
Vent 5 kt del Est/Nord-Est
Visibilitat 10 km o més
sense núvols per sota de 1500 mi sense presència de cumulonimbus.
Temporalment
l' 22 a les 12 UTC al 22 a les 22 UTC
Vent 26 kt del Nord-Est amb ràfegues de 36 kt

TAF: UDYZ 212314Z 2200/2224 07005KT CAVOK TEMPO 2212/2222 04026G36KT

Observacions i pronòstics meteorològics de més de 4000 aeroports (METAR i TAF).

Les estacions disponibles són els punts grocs i vermells al mapa.

Posi el ratolí al punt desitjat per veure el nom de l'estació.

Feu clic per veure les observacions i els pronòstics meteorològics.

Per canviar el mapa: feu clic els botons verds amb una creu de color negre per apropar; al botó verd amb un guió per allunyar la imatge; o en les fletxes verdes per a mapes adjacents.


METAR-TAF: